sensor_id;sensor_type;location;lat;lon;timestamp;P1;durP1;ratioP1;P2;durP2;ratioP2
49722;SDS011;43484;43.608;1.458;2023-04-25T00:02:13;5.05;;;4.10;;
49722;SDS011;43484;43.608;1.458;2023-04-25T00:04:41;7.90;;;4.47;;
49722;SDS011;43484;43.608;1.458;2023-04-25T00:07:08;6.13;;;5.10;;
49722;SDS011;43484;43.608;1.458;2023-04-25T00:09:35;7.07;;;4.50;;
49722;SDS011;43484;43.608;1.458;2023-04-25T00:12:02;6.22;;;4.60;;
49722;SDS011;43484;43.608;1.458;2023-04-25T00:14:29;7.25;;;4.60;;
49722;SDS011;43484;43.608;1.458;2023-04-25T00:16:56;7.13;;;4.38;;
49722;SDS011;43484;43.608;1.458;2023-04-25T00:19:24;4.80;;;3.92;;
49722;SDS011;43484;43.608;1.458;2023-04-25T00:21:50;5.43;;;3.50;;
49722;SDS011;43484;43.608;1.458;2023-04-25T00:24:17;4.18;;;3.75;;
49722;SDS011;43484;43.608;1.458;2023-04-25T00:26:44;6.72;;;3.92;;
49722;SDS011;43484;43.608;1.458;2023-04-25T00:29:10;10.95;;;3.97;;
49722;SDS011;43484;43.608;1.458;2023-04-25T00:31:37;6.60;;;4.13;;
49722;SDS011;43484;43.608;1.458;2023-04-25T00:34:04;6.10;;;3.75;;
49722;SDS011;43484;43.608;1.458;2023-04-25T00:36:31;11.63;;;4.20;;
49722;SDS011;43484;43.608;1.458;2023-04-25T00:38:58;7.50;;;4.10;;
49722;SDS011;43484;43.608;1.458;2023-04-25T00:41:25;4.28;;;3.65;;
49722;SDS011;43484;43.608;1.458;2023-04-25T00:43:53;11.50;;;4.53;;
49722;SDS011;43484;43.608;1.458;2023-04-25T00:46:21;4.95;;;3.95;;
49722;SDS011;43484;43.608;1.458;2023-04-25T00:48:48;8.25;;;4.32;;
49722;SDS011;43484;43.608;1.458;2023-04-25T00:51:16;9.15;;;4.65;;
49722;SDS011;43484;43.608;1.458;2023-04-25T00:53:45;5.80;;;4.53;;
49722;SDS011;43484;43.608;1.458;2023-04-25T00:56:14;5.78;;;4.68;;
49722;SDS011;43484;43.608;1.458;2023-04-25T00:58:41;9.10;;;5.45;;
49722;SDS011;43484;43.608;1.458;2023-04-25T01:01:09;7.93;;;4.30;;
49722;SDS011;43484;43.608;1.458;2023-04-25T01:03:37;10.30;;;4.72;;
49722;SDS011;43484;43.608;1.458;2023-04-25T01:06:09;7.43;;;4.50;;
49722;SDS011;43484;43.608;1.458;2023-04-25T01:08:37;6.03;;;4.30;;
49722;SDS011;43484;43.608;1.458;2023-04-25T01:11:05;6.25;;;4.32;;
49722;SDS011;43484;43.608;1.458;2023-04-25T01:13:32;8.38;;;4.47;;
49722;SDS011;43484;43.608;1.458;2023-04-25T01:16:00;9.32;;;4.78;;
49722;SDS011;43484;43.608;1.458;2023-04-25T01:18:27;7.15;;;3.95;;
49722;SDS011;43484;43.608;1.458;2023-04-25T01:20:54;6.55;;;4.25;;
49722;SDS011;43484;43.608;1.458;2023-04-25T01:23:22;7.47;;;4.28;;
49722;SDS011;43484;43.608;1.458;2023-04-25T01:25:49;9.93;;;4.55;;
49722;SDS011;43484;43.608;1.458;2023-04-25T01:28:16;5.90;;;4.10;;
49722;SDS011;43484;43.608;1.458;2023-04-25T01:30:43;5.65;;;4.28;;
49722;SDS011;43484;43.608;1.458;2023-04-25T01:33:09;4.82;;;3.95;;
49722;SDS011;43484;43.608;1.458;2023-04-25T01:35:37;6.80;;;3.47;;
49722;SDS011;43484;43.608;1.458;2023-04-25T01:38:04;3.90;;;3.00;;
49722;SDS011;43484;43.608;1.458;2023-04-25T01:40:30;3.13;;;2.22;;
49722;SDS011;43484;43.608;1.458;2023-04-25T01:42:59;3.30;;;1.98;;
49722;SDS011;43484;43.608;1.458;2023-04-25T01:45:26;3.35;;;1.45;;
49722;SDS011;43484;43.608;1.458;2023-04-25T01:47:52;1.95;;;1.65;;
49722;SDS011;43484;43.608;1.458;2023-04-25T01:50:19;3.65;;;1.33;;
49722;SDS011;43484;43.608;1.458;2023-04-25T01:52:46;2.33;;;1.15;;
49722;SDS011;43484;43.608;1.458;2023-04-25T01:55:13;1.95;;;1.10;;
49722;SDS011;43484;43.608;1.458;2023-04-25T01:57:40;0.93;;;0.82;;
49722;SDS011;43484;43.608;1.458;2023-04-25T02:00:06;1.50;;;1.00;;
49722;SDS011;43484;43.608;1.458;2023-04-25T02:02:34;1.98;;;1.00;;
49722;SDS011;43484;43.608;1.458;2023-04-25T02:05:01;2.08;;;0.70;;
49722;SDS011;43484;43.608;1.458;2023-04-25T02:07:28;1.50;;;1.00;;
49722;SDS011;43484;43.608;1.458;2023-04-25T02:09:55;1.60;;;0.68;;
49722;SDS011;43484;43.608;1.458;2023-04-25T02:12:21;1.77;;;0.80;;
49722;SDS011;43484;43.608;1.458;2023-04-25T02:14:48;3.38;;;1.08;;
49722;SDS011;43484;43.608;1.458;2023-04-25T02:17:15;1.63;;;0.70;;
49722;SDS011;43484;43.608;1.458;2023-04-25T02:19:42;0.65;;;0.50;;
49722;SDS011;43484;43.608;1.458;2023-04-25T02:22:08;0.98;;;0.82;;
49722;SDS011;43484;43.608;1.458;2023-04-25T02:24:36;2.13;;;1.27;;
49722;SDS011;43484;43.608;1.458;2023-04-25T02:27:03;0.90;;;0.50;;
49722;SDS011;43484;43.608;1.458;2023-04-25T02:29:29;2.17;;;0.47;;
49722;SDS011;43484;43.608;1.458;2023-04-25T02:31:56;1.55;;;0.50;;
49722;SDS011;43484;43.608;1.458;2023-04-25T02:34:22;0.70;;;0.47;;
49722;SDS011;43484;43.608;1.458;2023-04-25T02:36:49;0.60;;;0.50;;
49722;SDS011;43484;43.608;1.458;2023-04-25T02:39:18;0.30;;;0.30;;
49722;SDS011;43484;43.608;1.458;2023-04-25T02:41:45;1.17;;;0.50;;
49722;SDS011;43484;43.608;1.458;2023-04-25T02:44:12;0.40;;;0.40;;
49722;SDS011;43484;43.608;1.458;2023-04-25T02:46:38;2.28;;;0.45;;
49722;SDS011;43484;43.608;1.458;2023-04-25T02:49:05;0.45;;;0.38;;
49722;SDS011;43484;43.608;1.458;2023-04-25T02:51:32;0.30;;;0.20;;
49722;SDS011;43484;43.608;1.458;2023-04-25T02:53:59;2.15;;;0.20;;
49722;SDS011;43484;43.608;1.458;2023-04-25T02:56:25;5.28;;;0.30;;
49722;SDS011;43484;43.608;1.458;2023-04-25T02:58:53;1.10;;;0.20;;
49722;SDS011;43484;43.608;1.458;2023-04-25T03:01:20;1.80;;;0.30;;
49722;SDS011;43484;43.608;1.458;2023-04-25T03:03:47;0.30;;;0.30;;
49722;SDS011;43484;43.608;1.458;2023-04-25T03:06:13;0.20;;;0.20;;
49722;SDS011;43484;43.608;1.458;2023-04-25T03:08:42;1.25;;;0.20;;
49722;SDS011;43484;43.608;1.458;2023-04-25T03:11:09;1.23;;;0.20;;
49722;SDS011;43484;43.608;1.458;2023-04-25T03:13:35;0.40;;;0.10;;
49722;SDS011;43484;43.608;1.458;2023-04-25T03:16:02;2.90;;;0.30;;
49722;SDS011;43484;43.608;1.458;2023-04-25T03:18:29;0.63;;;0.20;;
49722;SDS011;43484;43.608;1.458;2023-04-25T03:20:55;0.28;;;0.17;;
49722;SDS011;43484;43.608;1.458;2023-04-25T03:23:22;1.55;;;0.30;;
49722;SDS011;43484;43.608;1.458;2023-04-25T03:25:48;0.50;;;0.30;;
49722;SDS011;43484;43.608;1.458;2023-04-25T03:28:15;1.75;;;0.20;;
49722;SDS011;43484;43.608;1.458;2023-04-25T03:30:42;0.70;;;0.20;;
49722;SDS011;43484;43.608;1.458;2023-04-25T03:33:08;1.73;;;0.30;;
49722;SDS011;43484;43.608;1.458;2023-04-25T03:35:35;0.60;;;0.30;;
49722;SDS011;43484;43.608;1.458;2023-04-25T03:38:01;0.20;;;0.10;;
49722;SDS011;43484;43.608;1.458;2023-04-25T03:40:28;1.95;;;0.13;;
49722;SDS011;43484;43.608;1.458;2023-04-25T03:42:54;0.30;;;0.30;;
49722;SDS011;43484;43.608;1.458;2023-04-25T03:45:21;1.40;;;0.30;;
49722;SDS011;43484;43.608;1.458;2023-04-25T03:47:47;0.17;;;0.17;;
49722;SDS011;43484;43.608;1.458;2023-04-25T03:50:14;0.30;;;0.20;;
49722;SDS011;43484;43.608;1.458;2023-04-25T03:52:42;1.42;;;0.80;;
49722;SDS011;43484;43.608;1.458;2023-04-25T03:55:09;1.25;;;0.40;;
49722;SDS011;43484;43.608;1.458;2023-04-25T03:57:36;0.38;;;0.30;;
49722;SDS011;43484;43.608;1.458;2023-04-25T04:00:03;1.23;;;0.20;;
49722;SDS011;43484;43.608;1.458;2023-04-25T04:02:30;0.73;;;0.30;;
49722;SDS011;43484;43.608;1.458;2023-04-25T04:04:57;0.32;;;0.30;;
49722;SDS011;43484;43.608;1.458;2023-04-25T04:07:24;1.70;;;0.30;;
49722;SDS011;43484;43.608;1.458;2023-04-25T04:09:51;1.40;;;0.30;;
49722;SDS011;43484;43.608;1.458;2023-04-25T04:12:17;0.85;;;0.40;;
49722;SDS011;43484;43.608;1.458;2023-04-25T04:14:44;1.60;;;0.40;;
49722;SDS011;43484;43.608;1.458;2023-04-25T04:17:11;3.05;;;0.40;;
49722;SDS011;43484;43.608;1.458;2023-04-25T04:19:37;1.42;;;0.38;;
49722;SDS011;43484;43.608;1.458;2023-04-25T04:22:04;0.95;;;0.35;;
49722;SDS011;43484;43.608;1.458;2023-04-25T04:24:30;0.40;;;0.30;;
49722;SDS011;43484;43.608;1.458;2023-04-25T04:26:57;3.20;;;0.60;;
49722;SDS011;43484;43.608;1.458;2023-04-25T04:29:23;0.88;;;0.35;;
49722;SDS011;43484;43.608;1.458;2023-04-25T04:31:50;0.50;;;0.40;;
49722;SDS011;43484;43.608;1.458;2023-04-25T04:34:19;0.47;;;0.38;;
49722;SDS011;43484;43.608;1.458;2023-04-25T04:36:45;0.52;;;0.30;;
49722;SDS011;43484;43.608;1.458;2023-04-25T04:39:13;9.18;;;0.63;;
49722;SDS011;43484;43.608;1.458;2023-04-25T04:41:40;2.15;;;0.80;;
49722;SDS011;43484;43.608;1.458;2023-04-25T04:44:06;1.63;;;0.35;;
49722;SDS011;43484;43.608;1.458;2023-04-25T04:46:35;3.05;;;0.40;;
49722;SDS011;43484;43.608;1.458;2023-04-25T04:49:07;4.28;;;1.02;;
49722;SDS011;43484;43.608;1.458;2023-04-25T04:51:35;1.27;;;0.50;;
49722;SDS011;43484;43.608;1.458;2023-04-25T04:54:03;0.95;;;0.68;;
49722;SDS011;43484;43.608;1.458;2023-04-25T04:56:30;0.90;;;0.40;;
49722;SDS011;43484;43.608;1.458;2023-04-25T04:58:57;2.28;;;0.52;;
49722;SDS011;43484;43.608;1.458;2023-04-25T05:01:25;0.70;;;0.50;;
49722;SDS011;43484;43.608;1.458;2023-04-25T05:03:52;2.25;;;0.30;;
49722;SDS011;43484;43.608;1.458;2023-04-25T05:06:20;0.88;;;0.45;;
49722;SDS011;43484;43.608;1.458;2023-04-25T05:08:47;0.73;;;0.43;;
49722;SDS011;43484;43.608;1.458;2023-04-25T05:11:13;1.05;;;0.40;;
49722;SDS011;43484;43.608;1.458;2023-04-25T05:13:40;1.17;;;0.47;;
49722;SDS011;43484;43.608;1.458;2023-04-25T05:16:07;0.32;;;0.32;;
49722;SDS011;43484;43.608;1.458;2023-04-25T05:18:33;2.05;;;0.50;;
49722;SDS011;43484;43.608;1.458;2023-04-25T05:21:00;2.60;;;0.52;;
49722;SDS011;43484;43.608;1.458;2023-04-25T05:23:27;1.25;;;0.50;;
49722;SDS011;43484;43.608;1.458;2023-04-25T05:25:54;2.55;;;1.00;;
49722;SDS011;43484;43.608;1.458;2023-04-25T05:28:21;2.17;;;0.47;;
49722;SDS011;43484;43.608;1.458;2023-04-25T05:30:48;0.90;;;0.38;;
49722;SDS011;43484;43.608;1.458;2023-04-25T05:33:15;1.25;;;0.52;;
49722;SDS011;43484;43.608;1.458;2023-04-25T05:35:42;1.98;;;0.70;;
49722;SDS011;43484;43.608;1.458;2023-04-25T05:38:08;1.83;;;0.70;;
49722;SDS011;43484;43.608;1.458;2023-04-25T05:40:35;1.75;;;0.70;;
49722;SDS011;43484;43.608;1.458;2023-04-25T05:43:01;0.85;;;0.40;;
49722;SDS011;43484;43.608;1.458;2023-04-25T05:45:28;0.82;;;0.47;;
49722;SDS011;43484;43.608;1.458;2023-04-25T05:47:55;2.28;;;0.50;;
49722;SDS011;43484;43.608;1.458;2023-04-25T05:50:22;1.55;;;0.77;;
49722;SDS011;43484;43.608;1.458;2023-04-25T05:52:50;1.10;;;0.60;;
49722;SDS011;43484;43.608;1.458;2023-04-25T05:55:17;1.77;;;0.80;;
49722;SDS011;43484;43.608;1.458;2023-04-25T05:57:43;1.33;;;0.63;;
49722;SDS011;43484;43.608;1.458;2023-04-25T06:00:12;0.73;;;0.60;;
49722;SDS011;43484;43.608;1.458;2023-04-25T06:02:41;4.00;;;0.70;;
49722;SDS011;43484;43.608;1.458;2023-04-25T06:05:08;1.38;;;0.60;;
49722;SDS011;43484;43.608;1.458;2023-04-25T06:07:35;2.58;;;0.60;;
49722;SDS011;43484;43.608;1.458;2023-04-25T06:10:02;2.20;;;0.60;;
49722;SDS011;43484;43.608;1.458;2023-04-25T06:12:32;3.03;;;0.60;;
49722;SDS011;43484;43.608;1.458;2023-04-25T06:14:59;4.45;;;0.63;;
49722;SDS011;43484;43.608;1.458;2023-04-25T06:17:27;0.50;;;0.50;;
49722;SDS011;43484;43.608;1.458;2023-04-25T06:19:54;1.25;;;0.60;;
49722;SDS011;43484;43.608;1.458;2023-04-25T06:22:21;1.40;;;0.63;;
49722;SDS011;43484;43.608;1.458;2023-04-25T06:24:47;0.98;;;0.68;;
49722;SDS011;43484;43.608;1.458;2023-04-25T06:27:14;1.33;;;0.70;;
49722;SDS011;43484;43.608;1.458;2023-04-25T06:29:42;3.05;;;0.63;;
49722;SDS011;43484;43.608;1.458;2023-04-25T06:32:08;1.23;;;0.52;;
49722;SDS011;43484;43.608;1.458;2023-04-25T06:34:35;1.08;;;0.68;;
49722;SDS011;43484;43.608;1.458;2023-04-25T06:37:02;3.92;;;0.70;;
49722;SDS011;43484;43.608;1.458;2023-04-25T06:39:28;3.65;;;0.73;;
49722;SDS011;43484;43.608;1.458;2023-04-25T06:41:55;2.75;;;0.60;;
49722;SDS011;43484;43.608;1.458;2023-04-25T06:44:22;1.90;;;0.57;;
49722;SDS011;43484;43.608;1.458;2023-04-25T06:46:50;3.20;;;0.60;;
49722;SDS011;43484;43.608;1.458;2023-04-25T06:49:17;1.02;;;0.60;;
49722;SDS011;43484;43.608;1.458;2023-04-25T06:51:43;1.05;;;0.60;;
49722;SDS011;43484;43.608;1.458;2023-04-25T06:54:10;1.67;;;0.60;;
49722;SDS011;43484;43.608;1.458;2023-04-25T06:56:36;0.70;;;0.57;;
49722;SDS011;43484;43.608;1.458;2023-04-25T06:59:03;1.38;;;0.47;;
49722;SDS011;43484;43.608;1.458;2023-04-25T07:01:30;0.88;;;0.30;;
49722;SDS011;43484;43.608;1.458;2023-04-25T07:03:57;2.53;;;0.60;;
49722;SDS011;43484;43.608;1.458;2023-04-25T07:06:24;3.13;;;1.02;;
49722;SDS011;43484;43.608;1.458;2023-04-25T07:08:52;2.63;;;0.30;;
49722;SDS011;43484;43.608;1.458;2023-04-25T07:11:18;0.82;;;0.35;;
49722;SDS011;43484;43.608;1.458;2023-04-25T07:13:45;0.85;;;0.40;;
49722;SDS011;43484;43.608;1.458;2023-04-25T07:16:12;0.43;;;0.20;;
49722;SDS011;43484;43.608;1.458;2023-04-25T07:18:39;0.52;;;0.30;;
49722;SDS011;43484;43.608;1.458;2023-04-25T07:21:05;2.35;;;0.30;;
49722;SDS011;43484;43.608;1.458;2023-04-25T07:23:32;2.25;;;0.30;;
49722;SDS011;43484;43.608;1.458;2023-04-25T07:25:59;0.73;;;0.10;;
49722;SDS011;43484;43.608;1.458;2023-04-25T07:28:25;0.85;;;0.10;;
49722;SDS011;43484;43.608;1.458;2023-04-25T07:30:52;0.47;;;0.10;;
49722;SDS011;43484;43.608;1.458;2023-04-25T07:33:18;0.10;;;0.00;;
49722;SDS011;43484;43.608;1.458;2023-04-25T07:35:46;0.10;;;0.10;;
49722;SDS011;43484;43.608;1.458;2023-04-25T07:38:13;0.13;;;0.10;;
49722;SDS011;43484;43.608;1.458;2023-04-25T07:40:40;0.10;;;0.10;;
49722;SDS011;43484;43.608;1.458;2023-04-25T07:43:06;0.98;;;0.20;;
49722;SDS011;43484;43.608;1.458;2023-04-25T07:45:33;3.17;;;0.22;;
49722;SDS011;43484;43.608;1.458;2023-04-25T07:47:59;2.88;;;0.20;;
49722;SDS011;43484;43.608;1.458;2023-04-25T07:50:26;1.75;;;0.20;;
49722;SDS011;43484;43.608;1.458;2023-04-25T07:52:53;0.65;;;0.40;;
49722;SDS011;43484;43.608;1.458;2023-04-25T07:55:19;0.10;;;0.10;;
49722;SDS011;43484;43.608;1.458;2023-04-25T07:57:46;2.10;;;0.20;;
49722;SDS011;43484;43.608;1.458;2023-04-25T08:00:12;0.40;;;0.40;;
49722;SDS011;43484;43.608;1.458;2023-04-25T08:02:41;0.20;;;0.20;;
49722;SDS011;43484;43.608;1.458;2023-04-25T08:05:07;1.05;;;0.45;;
49722;SDS011;43484;43.608;1.458;2023-04-25T08:07:38;0.65;;;0.22;;
49722;SDS011;43484;43.608;1.458;2023-04-25T08:10:07;10.23;;;0.60;;
49722;SDS011;43484;43.608;1.458;2023-04-25T08:12:34;0.20;;;0.10;;
49722;SDS011;43484;43.608;1.458;2023-04-25T08:15:01;4.10;;;0.22;;
49722;SDS011;43484;43.608;1.458;2023-04-25T08:17:28;0.63;;;0.17;;
49722;SDS011;43484;43.608;1.458;2023-04-25T08:19:54;1.08;;;0.20;;
49722;SDS011;43484;43.608;1.458;2023-04-25T08:22:21;1.25;;;0.40;;
49722;SDS011;43484;43.608;1.458;2023-04-25T08:24:48;1.80;;;0.30;;
49722;SDS011;43484;43.608;1.458;2023-04-25T08:27:14;0.98;;;0.20;;
49722;SDS011;43484;43.608;1.458;2023-04-25T08:29:41;0.13;;;0.13;;
49722;SDS011;43484;43.608;1.458;2023-04-25T08:32:08;8.85;;;0.47;;
49722;SDS011;43484;43.608;1.458;2023-04-25T08:34:35;0.65;;;0.30;;
49722;SDS011;43484;43.608;1.458;2023-04-25T08:37:02;0.95;;;0.40;;
49722;SDS011;43484;43.608;1.458;2023-04-25T08:39:31;0.50;;;0.47;;
49722;SDS011;43484;43.608;1.458;2023-04-25T08:41:57;0.43;;;0.20;;
49722;SDS011;43484;43.608;1.458;2023-04-25T08:44:24;3.60;;;0.57;;
49722;SDS011;43484;43.608;1.458;2023-04-25T08:46:51;0.52;;;0.30;;
49722;SDS011;43484;43.608;1.458;2023-04-25T08:49:18;1.00;;;0.22;;
49722;SDS011;43484;43.608;1.458;2023-04-25T08:51:46;0.10;;;0.10;;
49722;SDS011;43484;43.608;1.458;2023-04-25T08:54:14;0.90;;;0.45;;
49722;SDS011;43484;43.608;1.458;2023-04-25T08:57:01;0.95;;;0.30;;
49722;SDS011;43484;43.608;1.458;2023-04-25T08:59:28;1.08;;;0.28;;
49722;SDS011;43484;43.608;1.458;2023-04-25T09:01:56;0.57;;;0.30;;
49722;SDS011;43484;43.608;1.458;2023-04-25T09:04:24;0.82;;;0.10;;
49722;SDS011;43484;43.608;1.458;2023-04-25T09:06:50;0.30;;;0.13;;
49722;SDS011;43484;43.608;1.458;2023-04-25T09:09:17;5.28;;;0.28;;
49722;SDS011;43484;43.608;1.458;2023-04-25T09:11:44;2.05;;;0.38;;
49722;SDS011;43484;43.608;1.458;2023-04-25T09:14:20;0.90;;;0.40;;
49722;SDS011;43484;43.608;1.458;2023-04-25T09:22:06;0.30;;;0.30;;
49722;SDS011;43484;43.608;1.458;2023-04-25T09:24:40;5.63;;;0.35;;
49722;SDS011;43484;43.608;1.458;2023-04-25T09:27:10;0.50;;;0.30;;
49722;SDS011;43484;43.608;1.458;2023-04-25T09:29:38;4.38;;;0.30;;
49722;SDS011;43484;43.608;1.458;2023-04-25T09:32:10;1.48;;;0.30;;
49722;SDS011;43484;43.608;1.458;2023-04-25T09:34:48;1.27;;;0.73;;
49722;SDS011;43484;43.608;1.458;2023-04-25T09:37:17;1.65;;;0.30;;
49722;SDS011;43484;43.608;1.458;2023-04-25T09:39:45;0.15;;;0.10;;
49722;SDS011;43484;43.608;1.458;2023-04-25T09:42:15;0.40;;;0.20;;
49722;SDS011;43484;43.608;1.458;2023-04-25T09:44:43;0.73;;;0.22;;
49722;SDS011;43484;43.608;1.458;2023-04-25T09:47:12;0.40;;;0.40;;
49722;SDS011;43484;43.608;1.458;2023-04-25T09:49:40;0.77;;;0.40;;
49722;SDS011;43484;43.608;1.458;2023-04-25T09:52:10;0.38;;;0.30;;
49722;SDS011;43484;43.608;1.458;2023-04-25T09:54:50;2.38;;;0.40;;
49722;SDS011;43484;43.608;1.458;2023-04-25T09:57:19;0.65;;;0.30;;
49722;SDS011;43484;43.608;1.458;2023-04-25T09:59:51;0.50;;;0.25;;
49722;SDS011;43484;43.608;1.458;2023-04-25T10:02:26;1.52;;;0.45;;
49722;SDS011;43484;43.608;1.458;2023-04-25T10:04:54;0.50;;;0.40;;
49722;SDS011;43484;43.608;1.458;2023-04-25T10:07:23;0.32;;;0.30;;
49722;SDS011;43484;43.608;1.458;2023-04-25T10:09:55;1.58;;;0.30;;
49722;SDS011;43484;43.608;1.458;2023-04-25T10:12:32;0.28;;;0.20;;
49722;SDS011;43484;43.608;1.458;2023-04-25T10:15:00;1.23;;;0.52;;
49722;SDS011;43484;43.608;1.458;2023-04-25T10:17:27;0.55;;;0.32;;
49722;SDS011;43484;43.608;1.458;2023-04-25T10:19:54;0.75;;;0.28;;
49722;SDS011;43484;43.608;1.458;2023-04-25T10:22:32;2.00;;;0.40;;
49722;SDS011;43484;43.608;1.458;2023-04-25T10:25:02;0.60;;;0.50;;
49722;SDS011;43484;43.608;1.458;2023-04-25T10:27:32;2.33;;;0.57;;
49722;SDS011;43484;43.608;1.458;2023-04-25T10:30:15;4.97;;;0.50;;
49722;SDS011;43484;43.608;1.458;2023-04-25T10:32:42;1.42;;;0.70;;
49722;SDS011;43484;43.608;1.458;2023-04-25T10:35:30;1.63;;;1.05;;
49722;SDS011;43484;43.608;1.458;2023-04-25T10:40:24;1.02;;;0.60;;
49722;SDS011;43484;43.608;1.458;2023-04-25T10:42:52;0.80;;;0.60;;
49722;SDS011;43484;43.608;1.458;2023-04-25T10:45:19;0.82;;;0.40;;
49722;SDS011;43484;43.608;1.458;2023-04-25T10:47:46;0.68;;;0.43;;
49722;SDS011;43484;43.608;1.458;2023-04-25T10:50:16;0.38;;;0.30;;
49722;SDS011;43484;43.608;1.458;2023-04-25T10:52:43;2.40;;;0.40;;
49722;SDS011;43484;43.608;1.458;2023-04-25T10:55:13;0.70;;;0.70;;
49722;SDS011;43484;43.608;1.458;2023-04-25T11:02:38;1.25;;;0.50;;
49722;SDS011;43484;43.608;1.458;2023-04-25T11:05:22;1.52;;;0.60;;
49722;SDS011;43484;43.608;1.458;2023-04-25T11:07:55;0.90;;;0.50;;
49722;SDS011;43484;43.608;1.458;2023-04-25T11:10:33;1.85;;;0.43;;
49722;SDS011;43484;43.608;1.458;2023-04-25T11:13:01;2.53;;;0.40;;
49722;SDS011;43484;43.608;1.458;2023-04-25T11:15:29;0.57;;;0.40;;
49722;SDS011;43484;43.608;1.458;2023-04-25T11:17:55;2.00;;;0.32;;
49722;SDS011;43484;43.608;1.458;2023-04-25T11:20:24;0.75;;;0.43;;
49722;SDS011;43484;43.608;1.458;2023-04-25T11:22:52;0.63;;;0.30;;
49722;SDS011;43484;43.608;1.458;2023-04-25T11:25:19;0.90;;;0.30;;
49722;SDS011;43484;43.608;1.458;2023-04-25T11:27:49;1.30;;;0.40;;
49722;SDS011;43484;43.608;1.458;2023-04-25T11:30:20;1.65;;;0.43;;
49722;SDS011;43484;43.608;1.458;2023-04-25T11:32:47;1.73;;;0.60;;
49722;SDS011;43484;43.608;1.458;2023-04-25T11:35:14;2.78;;;0.50;;
49722;SDS011;43484;43.608;1.458;2023-04-25T11:37:42;1.63;;;0.35;;
49722;SDS011;43484;43.608;1.458;2023-04-25T11:40:10;1.10;;;0.30;;
49722;SDS011;43484;43.608;1.458;2023-04-25T11:42:38;0.85;;;0.20;;
49722;SDS011;43484;43.608;1.458;2023-04-25T11:45:06;0.22;;;0.13;;
49722;SDS011;43484;43.608;1.458;2023-04-25T11:47:33;0.98;;;0.30;;
49722;SDS011;43484;43.608;1.458;2023-04-25T11:50:01;1.27;;;0.28;;
49722;SDS011;43484;43.608;1.458;2023-04-25T11:52:39;0.35;;;0.20;;
49722;SDS011;43484;43.608;1.458;2023-04-25T11:55:07;0.98;;;0.35;;
49722;SDS011;43484;43.608;1.458;2023-04-25T11:57:40;0.60;;;0.20;;
49722;SDS011;43484;43.608;1.458;2023-04-25T12:00:08;0.30;;;0.30;;
49722;SDS011;43484;43.608;1.458;2023-04-25T12:02:44;0.75;;;0.30;;
49722;SDS011;43484;43.608;1.458;2023-04-25T12:05:18;0.68;;;0.35;;
49722;SDS011;43484;43.608;1.458;2023-04-25T12:08:09;0.93;;;0.43;;
49722;SDS011;43484;43.608;1.458;2023-04-25T12:10:39;0.60;;;0.35;;
49722;SDS011;43484;43.608;1.458;2023-04-25T12:15:46;0.73;;;0.38;;
49722;SDS011;43484;43.608;1.458;2023-04-25T12:18:13;0.98;;;0.60;;
49722;SDS011;43484;43.608;1.458;2023-04-25T12:20:41;0.93;;;0.50;;
49722;SDS011;43484;43.608;1.458;2023-04-25T12:23:08;1.20;;;0.40;;
49722;SDS011;43484;43.608;1.458;2023-04-25T12:25:41;0.73;;;0.50;;
49722;SDS011;43484;43.608;1.458;2023-04-25T12:28:11;0.95;;;0.50;;
49722;SDS011;43484;43.608;1.458;2023-04-25T12:33:35;0.68;;;0.50;;
49722;SDS011;43484;43.608;1.458;2023-04-25T12:36:03;0.75;;;0.73;;
49722;SDS011;43484;43.608;1.458;2023-04-25T12:38:35;0.70;;;0.50;;
49722;SDS011;43484;43.608;1.458;2023-04-25T12:41:06;3.28;;;0.70;;
49722;SDS011;43484;43.608;1.458;2023-04-25T12:43:34;2.17;;;1.10;;
49722;SDS011;43484;43.608;1.458;2023-04-25T12:46:00;3.45;;;0.80;;
49722;SDS011;43484;43.608;1.458;2023-04-25T12:48:27;0.77;;;0.77;;
49722;SDS011;43484;43.608;1.458;2023-04-25T12:50:54;0.40;;;0.35;;
49722;SDS011;43484;43.608;1.458;2023-04-25T12:53:21;13.27;;;1.15;;
49722;SDS011;43484;43.608;1.458;2023-04-25T12:55:49;0.90;;;0.60;;
49722;SDS011;43484;43.608;1.458;2023-04-25T12:58:17;1.60;;;0.80;;
49722;SDS011;43484;43.608;1.458;2023-04-25T13:00:45;1.25;;;0.80;;
49722;SDS011;43484;43.608;1.458;2023-04-25T13:03:12;1.88;;;1.05;;
49722;SDS011;43484;43.608;1.458;2023-04-25T13:05:39;1.02;;;0.77;;
49722;SDS011;43484;43.608;1.458;2023-04-25T13:08:07;0.65;;;0.57;;
49722;SDS011;43484;43.608;1.458;2023-04-25T13:10:34;2.50;;;0.57;;
49722;SDS011;43484;43.608;1.458;2023-04-25T13:13:02;1.55;;;0.63;;
49722;SDS011;43484;43.608;1.458;2023-04-25T13:15:29;0.45;;;0.45;;
49722;SDS011;43484;43.608;1.458;2023-04-25T13:17:56;0.50;;;0.50;;
49722;SDS011;43484;43.608;1.458;2023-04-25T13:20:22;1.52;;;1.00;;
49722;SDS011;43484;43.608;1.458;2023-04-25T13:22:49;0.68;;;0.65;;
49722;SDS011;43484;43.608;1.458;2023-04-25T13:25:17;2.15;;;0.68;;
49722;SDS011;43484;43.608;1.458;2023-04-25T13:27:43;3.10;;;0.68;;
49722;SDS011;43484;43.608;1.458;2023-04-25T13:30:11;2.97;;;0.80;;
49722;SDS011;43484;43.608;1.458;2023-04-25T13:32:38;1.70;;;1.00;;
49722;SDS011;43484;43.608;1.458;2023-04-25T13:35:06;1.10;;;0.60;;
49722;SDS011;43484;43.608;1.458;2023-04-25T13:37:36;3.33;;;1.15;;
49722;SDS011;43484;43.608;1.458;2023-04-25T13:40:05;0.88;;;0.60;;
49722;SDS011;43484;43.608;1.458;2023-04-25T13:42:37;0.60;;;0.57;;
49722;SDS011;43484;43.608;1.458;2023-04-25T13:45:05;1.77;;;0.20;;
49722;SDS011;43484;43.608;1.458;2023-04-25T13:47:32;0.65;;;0.25;;
49722;SDS011;43484;43.608;1.458;2023-04-25T13:49:59;0.50;;;0.40;;
49722;SDS011;43484;43.608;1.458;2023-04-25T13:52:26;0.40;;;0.40;;
49722;SDS011;43484;43.608;1.458;2023-04-25T13:54:53;1.23;;;0.43;;
49722;SDS011;43484;43.608;1.458;2023-04-25T13:57:20;7.93;;;1.30;;
49722;SDS011;43484;43.608;1.458;2023-04-25T13:59:46;0.77;;;0.20;;
49722;SDS011;43484;43.608;1.458;2023-04-25T14:02:13;1.70;;;0.60;;
49722;SDS011;43484;43.608;1.458;2023-04-25T14:04:40;0.43;;;0.40;;
49722;SDS011;43484;43.608;1.458;2023-04-25T14:07:07;1.00;;;0.28;;
49722;SDS011;43484;43.608;1.458;2023-04-25T14:09:34;0.73;;;0.50;;
49722;SDS011;43484;43.608;1.458;2023-04-25T14:12:01;1.42;;;0.57;;
49722;SDS011;43484;43.608;1.458;2023-04-25T14:14:28;1.30;;;0.32;;
49722;SDS011;43484;43.608;1.458;2023-04-25T14:16:54;1.33;;;0.50;;
49722;SDS011;43484;43.608;1.458;2023-04-25T14:19:23;0.32;;;0.30;;
49722;SDS011;43484;43.608;1.458;2023-04-25T14:21:50;0.47;;;0.30;;
49722;SDS011;43484;43.608;1.458;2023-04-25T14:24:17;1.85;;;0.20;;
49722;SDS011;43484;43.608;1.458;2023-04-25T14:26:43;1.20;;;0.30;;
49722;SDS011;43484;43.608;1.458;2023-04-25T14:29:10;0.43;;;0.30;;
49722;SDS011;43484;43.608;1.458;2023-04-25T14:31:40;0.88;;;0.30;;
49722;SDS011;43484;43.608;1.458;2023-04-25T14:34:07;1.23;;;0.40;;
49722;SDS011;43484;43.608;1.458;2023-04-25T14:36:35;1.27;;;0.40;;
49722;SDS011;43484;43.608;1.458;2023-04-25T14:39:02;2.03;;;0.50;;
49722;SDS011;43484;43.608;1.458;2023-04-25T14:41:31;1.50;;;0.70;;
49722;SDS011;43484;43.608;1.458;2023-04-25T14:43:58;2.72;;;0.40;;
49722;SDS011;43484;43.608;1.458;2023-04-25T14:46:25;0.98;;;0.57;;
49722;SDS011;43484;43.608;1.458;2023-04-25T14:48:52;5.63;;;0.50;;
49722;SDS011;43484;43.608;1.458;2023-04-25T14:51:19;1.25;;;0.60;;
49722;SDS011;43484;43.608;1.458;2023-04-25T14:53:46;1.45;;;0.40;;
49722;SDS011;43484;43.608;1.458;2023-04-25T14:56:13;2.15;;;0.52;;
49722;SDS011;43484;43.608;1.458;2023-04-25T14:58:39;0.75;;;0.60;;
49722;SDS011;43484;43.608;1.458;2023-04-25T15:01:06;3.80;;;0.80;;
49722;SDS011;43484;43.608;1.458;2023-04-25T15:03:34;2.72;;;0.80;;
49722;SDS011;43484;43.608;1.458;2023-04-25T15:06:01;4.30;;;0.68;;
49722;SDS011;43484;43.608;1.458;2023-04-25T15:08:28;4.13;;;0.90;;
49722;SDS011;43484;43.608;1.458;2023-04-25T15:10:54;6.85;;;1.00;;